Time;durP1;ratioP1;P1;durP2;ratioP2;P2;SDS_P1;SDS_P2;PMS_P1;PMS_P2;Temp;Humidity;BMP_temperature;BMP_pressure;BME280_temperature;BME280_humidity;BME280_pressure;Samples;Min_cycle;Max_cycle;Signal;HPM_P1;HPM_P2
2021/06/12 00:02:26;;;;;;;9.60;5.80;;;;;;;20.29;58.23;100115.16;10543291;28;20044;-69
2021/06/12 00:07:28;;;;;;;5.90;5.50;;;;;;;20.63;57.86;100104.78;10526230;28;20055;-69
2021/06/12 00:12:29;;;;;;;6.15;5.65;;;;;;;20.51;58.57;100102.97;10543931;28;20098;-69
2021/06/12 00:17:31;;;;;;;5.97;5.47;;;;;;;20.70;57.76;100100.69;10544173;28;20043;-69
2021/06/12 00:22:33;;;;;;;5.60;5.07;;;;;;;20.76;57.33;100105.59;10543345;28;20143;-69
2021/06/12 00:27:34;;;;;;;5.30;4.80;;;;;;;20.53;57.49;100109.91;10543750;28;20047;-70
2021/06/12 00:32:36;;;;;;;5.82;5.43;;;;;;;20.45;57.81;100104.22;10543381;28;20055;-70
2021/06/12 00:37:39;;;;;;;5.50;5.10;;;;;;;20.34;58.32;100101.47;10543210;28;20047;-70
2021/06/12 00:42:42;;;;;;;6.00;5.05;;;;;;;20.37;58.54;100098.59;10525096;28;20446;-70
2021/06/12 00:47:48;;;;;;;5.28;4.88;;;;;;;20.41;59.04;100100.09;10524264;28;20084;-70
2021/06/12 00:52:50;;;;;;;4.82;4.53;;;;;;;20.41;58.79;100097.41;10543327;28;20123;-69
2021/06/12 00:57:52;;;;;;;4.63;4.32;;;;;;;20.53;58.33;100090.34;10542276;28;20403;-69
2021/06/12 01:02:54;;;;;;;4.72;4.43;;;;;;;20.64;57.90;100095.78;10541812;28;20044;-69
2021/06/12 01:07:56;;;;;;;5.38;4.97;;;;;;;20.78;57.79;100087.63;10523497;28;20044;-68
2021/06/12 01:13:09;;;;;;;5.38;5.00;;;;;;;20.34;58.59;100090.81;10541021;28;20045;-70
2021/06/12 01:18:14;;;;;;;5.70;4.70;;;;;;;20.25;58.79;100086.97;10523401;28;20516;-69
2021/06/12 01:23:54;;;;;;;5.18;4.88;;;;;;;20.17;59.08;100087.50;10541048;28;20044;-69
2021/06/12 01:29:14;;;;;;;4.50;4.20;;;;;;;20.11;59.09;100085.28;10522501;28;20036;-69
2021/06/12 01:34:18;;;;;;;3.85;3.58;;;;;;;20.10;59.61;100088.06;10540970;28;20040;-70
2021/06/12 01:39:23;;;;;;;5.18;4.88;;;;;;;20.36;59.30;100071.06;10541541;28;20044;-69
2021/06/12 01:44:27;;;;;;;4.97;4.57;;;;;;;20.02;60.67;100067.25;10540717;28;20097;-69
2021/06/12 01:49:34;;;;;;;4.25;3.95;;;;;;;19.74;61.23;100060.31;10521672;28;20056;-69
2021/06/12 01:54:37;;;;;;;5.00;4.60;;;;;;;19.54;61.77;100064.31;10540511;28;20094;-69
2021/06/12 01:59:39;;;;;;;4.90;4.55;;;;;;;19.46;61.83;100053.31;10541089;28;20051;-69
2021/06/12 02:04:42;;;;;;;4.90;4.40;;;;;;;19.34;61.40;100063.00;10539449;28;20036;-69
2021/06/12 02:09:47;;;;;;;5.50;5.10;;;;;;;19.88;59.51;100057.56;10521598;28;20066;-70
2021/06/12 02:14:50;;;;;;;5.40;4.90;;;;;;;19.86;59.67;100051.47;10521478;28;20055;-70
2021/06/12 02:19:51;;;;;;;5.00;4.60;;;;;;;19.87;59.92;100045.16;10539964;28;20059;-70
2021/06/12 02:24:53;;;;;;;4.78;4.53;;;;;;;19.53;61.00;100051.13;10520494;28;20097;-70
2021/06/12 02:29:56;;;;;;;5.50;5.07;;;;;;;19.25;62.17;100049.44;10540164;28;20439;-70
2021/06/12 02:34:58;;;;;;;4.72;4.32;;;;;;;19.24;62.38;100045.09;10539596;28;20085;-70
2021/06/12 02:39:59;;;;;;;5.10;4.70;;;;;;;19.44;62.23;100041.94;10539244;28;20052;-70
2021/06/12 02:45:02;;;;;;;5.65;5.25;;;;;;;19.20;63.24;100048.91;10539150;28;20040;-70
2021/06/12 02:50:05;;;;;;;6.28;5.88;;;;;;;18.81;64.17;100053.25;10553278;22;20044;-74
2021/06/12 02:55:12;;;;;;;6.40;5.93;;;;;;;18.79;64.23;100047.19;10545256;28;20040;-73
2021/06/12 03:00:16;;;;;;;7.15;6.50;;;;;;;18.72;63.93;100060.03;10544966;28;20055;-73
2021/06/12 03:05:21;;;;;;;5.72;5.32;;;;;;;18.91;63.47;100043.72;10544646;28;20052;-73
2021/06/12 03:10:26;;;;;;;5.45;5.05;;;;;;;18.94;63.76;100048.84;10526759;28;20512;-74
2021/06/12 03:15:32;;;;;;;6.38;5.45;;;;;;;19.04;63.65;100035.78;10528816;28;20128;-73
2021/06/12 03:20:36;;;;;;;6.55;6.05;;;;;;;18.71;64.79;100041.50;10545074;28;20047;-74
2021/06/12 03:25:38;;;;;;;6.07;5.63;;;;;;;18.62;64.95;100048.25;10542574;28;20051;-73
2021/06/12 03:30:40;;;;;;;5.38;5.07;;;;;;;18.71;64.83;100055.69;10523183;28;20076;-73
2021/06/12 03:35:44;;;;;;;6.53;6.00;;;;;;;18.73;64.80;100058.25;10547261;28;20040;-74
2021/06/12 03:40:46;;;;;;;5.95;5.50;;;;;;;19.04;63.71;100065.09;10530284;28;20048;-74
2021/06/12 03:45:47;;;;;;;6.35;5.95;;;;;;;18.87;63.37;100072.38;10530360;28;20051;-73
2021/06/12 03:50:54;;;;;;;5.97;5.57;;;;;;;19.00;63.77;100064.44;10547693;28;20082;-73
2021/06/12 03:55:59;;;;;;;6.70;6.22;;;;;;;19.19;63.55;100060.53;10547943;28;20032;-74
2021/06/12 04:01:00;;;;;;;6.35;5.85;;;;;;;19.11;63.25;100066.38;10547772;28;20044;-73
2021/06/12 04:06:02;;;;;;;6.18;5.88;;;;;;;19.06;64.45;100068.50;10548296;28;20055;-73
2021/06/12 04:11:05;;;;;;;5.28;4.93;;;;;;;19.12;63.51;100058.28;10548256;28;20374;-73
2021/06/12 04:16:08;;;;;;;5.72;5.40;;;;;;;19.16;63.97;100067.75;10547358;28;20044;-73
2021/06/12 04:21:13;;;;;;;5.65;5.25;;;;;;;19.27;63.36;100053.72;10547904;28;20583;-72
2021/06/12 04:26:14;;;;;;;5.07;4.78;;;;;;;19.51;63.47;100061.88;10546329;28;20040;-73
2021/06/12 04:31:16;;;;;;;5.72;5.28;;;;;;;19.79;62.59;100059.97;10528391;28;20054;-73
2021/06/12 04:36:18;;;;;;;5.43;4.90;;;;;;;19.97;61.96;100065.88;10547162;28;20044;-73
2021/06/12 04:41:19;;;;;;;4.93;4.50;;;;;;;20.42;60.56;100062.59;10546780;28;20087;-72
2021/06/12 04:46:22;;;;;;;5.40;5.10;;;;;;;20.45;60.74;100071.31;10546503;28;20453;-73
2021/06/12 04:51:24;;;;;;;5.80;5.40;;;;;;;20.42;60.86;100062.59;10546737;28;20122;-73
2021/06/12 04:56:26;;;;;;;5.05;4.65;;;;;;;20.51;59.98;100060.25;10547218;28;20047;-72
2021/06/12 05:01:28;;;;;;;5.57;5.07;;;;;;;20.48;59.71;100055.13;10528794;28;20052;-73
2021/06/12 05:06:29;;;;;;;5.03;4.63;;;;;;;20.58;60.74;100057.00;10545426;28;20040;-73
2021/06/12 05:11:32;;;;;;;4.50;4.20;;;;;;;20.92;58.87;100058.06;10527628;28;20036;-73
2021/06/12 05:16:34;;;;;;;5.38;4.97;;;;;;;20.76;59.10;100061.97;10546000;28;20046;-73
2021/06/12 05:21:39;;;;;;;5.90;5.50;;;;;;;20.58;60.13;100072.19;10525200;28;20059;-74
2021/06/12 05:26:41;;;;;;;5.20;4.80;;;;;;;20.87;59.34;100062.03;10526030;28;20048;-74
2021/06/12 05:31:43;;;;;;;6.10;5.60;;;;;;;20.69;60.29;100066.06;10544980;28;20047;-73
2021/06/12 05:36:44;;;;;;;6.28;5.72;;;;;;;20.70;60.08;100063.28;10543864;28;20093;-73
2021/06/12 05:41:46;;;;;;;6.10;5.60;;;;;;;21.09;61.02;100050.59;10524876;28;20142;-73
2021/06/12 05:46:50;;;;;;;6.45;5.97;;;;;;;21.11;59.24;100049.50;10543894;28;20043;-73
2021/06/12 05:51:52;;;;;;;6.85;6.35;;;;;;;20.98;60.04;100051.38;10543015;28;20498;-74
2021/06/12 05:56:55;;;;;;;6.30;5.70;;;;;;;21.14;59.33;100057.31;10543201;28;20127;-73
2021/06/12 06:01:57;;;;;;;6.82;6.30;;;;;;;21.55;58.51;100047.97;10525323;28;20067;-73
2021/06/12 06:06:59;;;;;;;6.25;5.88;;;;;;;22.50;55.89;100040.47;10542253;28;20097;-73
2021/06/12 06:12:00;;;;;;;5.05;4.70;;;;;;;22.39;55.99;100033.31;10541858;28;20050;-73
2021/06/12 06:17:02;;;;;;;6.30;5.90;;;;;;;22.52;55.70;100043.03;10542669;28;20117;-74
2021/06/12 06:22:04;;;;;;;6.13;5.72;;;;;;;22.35;56.63;100036.34;10524367;28;20051;-75
2021/06/12 06:27:06;;;;;;;7.63;7.07;;;;;;;22.37;56.10;100037.09;10543285;28;20036;-75
2021/06/12 06:32:07;;;;;;;6.47;5.65;;;;;;;22.27;57.65;100036.13;10526132;28;20044;-75
2021/06/12 06:37:09;;;;;;;6.38;5.78;;;;;;;22.44;56.89;100040.97;10543493;28;20051;-73
2021/06/12 06:42:10;;;;;;;6.47;5.97;;;;;;;22.46;56.45;100041.72;10543324;28;20127;-73
2021/06/12 06:47:12;;;;;;;6.05;5.65;;;;;;;22.49;56.93;100038.78;10543145;28;20037;-73
2021/06/12 06:52:14;;;;;;;6.45;5.97;;;;;;;22.33;57.26;100033.81;10544115;28;20543;-73
2021/06/12 06:57:16;;;;;;;7.00;6.50;;;;;;;22.55;56.85;100032.06;10543070;28;20047;-73
2021/06/12 07:02:17;;;;;;;5.82;5.43;;;;;;;22.87;55.66;100016.00;10544299;28;20044;-72
2021/06/12 07:07:19;;;;;;;5.60;5.20;;;;;;;23.37;55.11;100011.78;10544062;28;20066;-73
2021/06/12 07:12:21;;;;;;;5.70;5.20;;;;;;;23.93;53.09;100007.88;10551022;28;20048;-74
2021/06/12 07:17:22;;;;;;;5.60;4.28;;;;;;;24.34;52.88;100003.34;10551038;28;20154;-72
2021/06/12 07:22:24;;;;;;;3.88;3.58;;;;;;;24.52;52.63;100004.41;10532539;28;20040;-74
2021/06/12 07:27:26;;;;;;;4.57;4.13;;;;;;;24.61;51.19;100003.59;10532319;28;20089;-73
2021/06/12 07:32:27;;;;;;;5.25;3.80;;;;;;;24.78;51.59;99987.72;10532232;28;20040;-73
2021/06/12 07:37:29;;;;;;;4.50;4.13;;;;;;;24.62;50.86;99973.03;10549985;28;20044;-73
2021/06/12 07:42:31;;;;;;;10.48;4.82;;;;;;;24.77;51.76;99977.97;10532077;28;20040;-73
2021/06/12 07:47:35;;;;;;;5.43;5.03;;;;;;;24.88;50.03;99976.00;10549288;28;20036;-72
2021/06/12 07:52:36;;;;;;;4.90;4.60;;;;;;;24.74;51.36;99981.78;10531190;28;20058;-73
2021/06/12 07:57:38;;;;;;;5.53;5.03;;;;;;;25.06;51.59;99984.22;10533560;28;20065;-73
2021/06/12 08:02:40;;;;;;;5.90;5.40;;;;;;;25.48;49.88;99973.09;10530819;28;20090;-72
2021/06/12 08:07:41;;;;;;;6.18;5.57;;;;;;;25.15;50.83;99978.00;10530599;28;20055;-72
2021/06/12 08:12:45;;;;;;;6.97;6.47;;;;;;;24.79;51.14;99976.88;10529916;28;20060;-72
2021/06/12 08:17:46;;;;;;;8.18;7.57;;;;;;;24.42;53.13;99968.59;10548441;28;20097;-72
2021/06/12 08:22:48;;;;;;;7.10;6.60;;;;;;;24.63;52.83;99985.47;10547546;28;20054;-71
2021/06/12 08:27:50;;;;;;;8.65;7.95;;;;;;;24.44;52.67;99990.84;10548279;28;20127;-72
2021/06/12 08:32:51;;;;;;;8.25;7.43;;;;;;;24.22;53.96;99999.09;10547314;28;20040;-71
2021/06/12 08:37:54;;;;;;;6.75;6.18;;;;;;;24.32;53.91;100002.63;10547318;28;20044;-71
2021/06/12 08:42:57;;;;;;;6.90;6.40;;;;;;;24.22;54.74;100004.47;10530090;28;20497;-72
2021/06/12 08:48:00;;;;;;;9.40;6.85;;;;;;;24.41;54.42;99993.78;10511562;28;20044;-73
2021/06/12 08:53:02;;;;;;;6.60;6.10;;;;;;;24.88;52.76;99989.47;10511373;22;20049;-71
2021/06/12 08:58:14;;;;;;;6.38;5.93;;;;;;;25.38;51.74;99978.53;10500331;28;20086;-71
2021/06/12 09:03:24;;;;;;;7.57;6.90;;;;;;;25.36;50.93;99985.88;10501292;28;20516;-71
2021/06/12 09:08:27;;;;;;;6.78;6.28;;;;;;;25.05;52.11;99977.09;10499444;28;20056;-70
2021/06/12 09:13:51;;;;;;;7.00;6.43;;;;;;;24.72;53.67;99983.78;10500076;28;20037;-71
2021/06/12 09:18:55;;;;;;;7.43;5.85;;;;;;;25.14;50.90;99970.91;10499523;28;20040;-71
2021/06/12 09:23:58;;;;;;;6.85;6.30;;;;;;;24.78;51.40;99977.81;10499197;28;20044;-70
2021/06/12 09:29:04;;;;;;;7.35;6.65;;;;;;;25.17;50.08;99970.63;10498240;28;20044;-70
2021/06/12 09:34:10;;;;;;;6.30;5.80;;;;;;;25.55;50.31;99970.69;10496714;28;20051;-70
2021/06/12 09:39:24;;;;;;;6.30;5.57;;;;;;;25.97;49.17;99968.41;10496522;28;20040;-70
2021/06/12 09:44:30;;;;;;;5.22;4.82;;;;;;;26.62;48.46;99966.50;10497061;28;20047;-70
2021/06/12 09:49:39;;;;;;;4.90;4.40;;;;;;;26.03;49.65;99962.47;10496743;28;20044;-72
2021/06/12 09:54:42;;;;;;;11.30;5.32;;;;;;;25.80;48.57;99955.75;10498878;28;20399;-71
2021/06/12 09:59:52;;;;;;;6.57;5.72;;;;;;;25.58;48.40;99965.00;10500038;28;20071;-71
2021/06/12 10:04:58;;;;;;;4.70;4.28;;;;;;;25.52;48.72;99961.06;10466881;28;20046;-70
2021/06/12 10:10:12;;;;;;;5.00;4.60;;;;;;;25.64;50.78;99949.13;10456666;28;20049;-70
2021/06/12 10:15:16;;;;;;;6.00;5.60;;;;;;;25.56;48.32;99950.84;10457137;28;20033;-70
2021/06/12 10:20:21;;;;;;;8.40;5.53;;;;;;;25.77;48.49;99946.13;10473972;28;20478;-70
2021/06/12 10:25:23;;;;;;;5.17;4.77;;;;;;;26.09;47.60;99945.69;10497958;28;20041;-71
2021/06/12 10:30:25;;;;;;;6.45;5.88;;;;;;;25.61;49.34;99949.41;10497525;28;20047;-71
2021/06/12 10:35:28;;;;;;;5.78;5.28;;;;;;;24.92;50.57;99946.97;10497382;28;20044;-71
2021/06/12 10:40:33;;;;;;;6.35;5.75;;;;;;;25.46;50.51;99942.81;10496970;28;20045;-70
2021/06/12 10:45:36;;;;;;;5.85;5.30;;;;;;;25.65;49.27;99928.44;10502056;28;20106;-71
2021/06/12 10:50:43;;;;;;;5.25;4.75;;;;;;;24.82;50.33;99932.69;10505829;28;20048;-71
2021/06/12 10:55:50;;;;;;;5.55;5.10;;;;;;;24.61;50.66;99935.53;10505082;28;20048;-71
2021/06/12 11:01:16;;;;;;;5.80;5.30;;;;;;;24.14;52.07;99940.69;10505558;28;20110;-71
2021/06/12 11:06:35;;;;;;;6.65;5.90;;;;;;;24.11;52.20;99925.69;10505371;28;20509;-71
2021/06/12 11:11:38;;;;;;;5.47;5.07;;;;;;;24.60;51.27;99905.13;10505860;28;20033;-70
2021/06/12 11:16:39;;;;;;;7.00;6.40;;;;;;;24.66;50.96;99904.56;10505306;28;20405;-70
2021/06/12 11:22:19;;;;;;;6.75;6.25;;;;;;;24.77;51.65;99908.94;10504886;28;20074;-71
2021/06/12 11:27:47;;;;;;;5.88;5.47;;;;;;;25.44;51.05;99906.28;10505461;28;20052;-72
2021/06/12 11:32:55;;;;;;;7.20;6.60;;;;;;;25.46;50.07;99902.47;10503111;28;20064;-71
2021/06/12 11:37:58;;;;;;;6.72;5.90;;;;;;;25.77;48.88;99910.28;10504157;28;20052;-70
2021/06/12 11:43:00;;;;;;;6.80;6.30;;;;;;;25.31;49.75;99902.06;10503640;28;20132;-71
2021/06/12 11:48:17;;;;;;;6.18;5.57;;;;;;;25.07;50.67;99899.00;10504045;28;20568;-71
2021/06/12 11:53:21;;;;;;;6.93;6.43;;;;;;;24.64;51.00;99895.78;10503633;28;20131;-71
2021/06/12 11:58:23;;;;;;;7.95;6.82;;;;;;;24.20;50.85;99893.63;10503763;28;20446;-71
2021/06/12 12:03:25;;;;;;;6.55;6.15;;;;;;;24.26;51.64;99893.03;10503273;28;20110;-71
2021/06/12 12:08:26;;;;;;;6.75;6.25;;;;;;;24.50;50.81;99892.69;10502832;28;20036;-71
2021/06/12 12:13:39;;;;;;;5.68;5.28;;;;;;;24.40;51.49;99896.22;10502783;28;20036;-71
2021/06/12 12:18:45;;;;;;;5.88;5.38;;;;;;;23.80;52.54;99891.84;10503797;28;20124;-71
2021/06/12 12:23:46;;;;;;;6.15;5.57;;;;;;;23.23;52.35;99894.09;10501146;28;20163;-70
2021/06/12 12:29:04;;;;;;;6.63;5.43;;;;;;;23.17;53.72;99900.84;10501585;28;20044;-70
2021/06/12 12:34:06;;;;;;;5.45;4.70;;;;;;;23.31;52.81;99890.75;10502252;28;20044;-70
2021/06/12 12:39:09;;;;;;;4.72;3.70;;;;;;;23.61;51.87;99895.28;10502393;28;20044;-70
2021/06/12 12:44:16;;;;;;;5.30;3.33;;;;;;;23.99;50.89;99891.88;10502707;28;20070;-70
2021/06/12 12:49:26;;;;;;;2.47;2.28;;;;;;;24.24;49.99;99886.97;10501634;28;20047;-70
2021/06/12 12:54:31;;;;;;;3.28;1.90;;;;;;;24.36;50.34;99884.03;10502791;28;20580;-70
2021/06/12 12:59:37;;;;;;;2.75;1.80;;;;;;;24.74;49.57;99890.41;10501019;28;20036;-70
2021/06/12 13:04:45;;;;;;;3.88;1.60;;;;;;;24.61;49.57;99897.91;10499038;28;20036;-69
2021/06/12 13:10:04;;;;;;;4.75;2.53;;;;;;;23.90;52.69;99904.28;10498760;28;20047;-70
2021/06/12 13:15:10;;;;;;;1.65;1.55;;;;;;;23.14;53.84;99887.69;10500356;28;20486;-70
2021/06/12 13:20:18;;;;;;;2.55;1.50;;;;;;;23.29;53.50;99890.91;10496997;28;20055;-69
2021/06/12 13:25:19;;;;;;;2.83;1.52;;;;;;;23.38;51.72;99883.88;10498945;28;20059;-68
2021/06/12 13:30:21;;;;;;;2.58;1.55;;;;;;;23.38;52.48;99895.47;10498021;28;20070;-69
2021/06/12 13:35:38;;;;;;;3.72;1.67;;;;;;;23.38;51.57;99897.31;10499501;28;20040;-70
2021/06/12 13:40:50;;;;;;;3.72;1.70;;;;;;;22.88;52.76;99894.41;10499351;28;20486;-70
2021/06/12 13:45:55;;;;;;;4.50;1.92;;;;;;;23.35;51.32;99890.34;10497697;28;20074;-70
2021/06/12 13:50:58;;;;;;;1.77;1.67;;;;;;;23.69;53.24;99891.94;10481712;28;20074;-70
2021/06/12 13:55:59;;;;;;;3.00;1.77;;;;;;;23.71;50.10;99904.22;10499359;28;20068;-70
2021/06/12 14:01:02;;;;;;;4.85;1.90;;;;;;;23.20;51.05;99896.19;10497586;28;20059;-71
2021/06/12 14:06:04;;;;;;;2.22;2.03;;;;;;;22.79;52.83;99900.56;10499388;28;20044;-69
2021/06/12 14:11:07;;;;;;;3.80;2.20;;;;;;;22.78;52.54;99904.22;10497683;28;20048;-71
2021/06/12 14:16:09;;;;;;;4.68;2.20;;;;;;;23.23;52.65;99909.34;10497948;28;20045;-71
2021/06/12 14:21:12;;;;;;;2.72;2.08;;;;;;;23.12;52.64;99894.19;10495820;28;20110;-71
2021/06/12 14:26:14;;;;;;;3.05;2.17;;;;;;;22.71;53.20;99916.44;10498836;28;20036;-71
2021/06/12 14:31:16;;;;;;;2.75;1.90;;;;;;;21.66;57.03;99921.44;10497308;28;20067;-70
2021/06/12 14:36:18;;;;;;;1.92;1.83;;;;;;;20.94;59.58;99926.16;10497411;28;20041;-70
2021/06/12 14:41:19;;;;;;;2.40;2.20;;;;;;;20.70;61.19;99921.72;10495579;28;20040;-67
2021/06/12 14:46:21;;;;;;;2.22;2.13;;;;;;;20.62;61.11;99922.28;10492689;28;20075;-68
2021/06/12 14:51:23;;;;;;;4.07;2.70;;;;;;;20.30;61.54;99924.66;10492386;28;20040;-69
2021/06/12 14:56:25;;;;;;;2.95;1.77;;;;;;;20.45;61.81;99928.00;10494354;28;20044;-71
2021/06/12 15:01:27;;;;;;;2.55;2.20;;;;;;;20.48;61.24;99926.97;10498397;28;20052;-72
2021/06/12 15:06:28;;;;;;;2.33;1.70;;;;;;;20.45;60.87;99936.00;10497158;28;20493;-71
2021/06/12 15:11:30;;;;;;;2.58;2.10;;;;;;;20.38;62.08;99930.28;10497410;28;20387;-72
2021/06/12 15:16:32;;;;;;;2.72;2.53;;;;;;;20.75;62.36;99918.69;10498824;28;20071;-72
2021/06/12 15:21:34;;;;;;;5.38;3.35;;;;;;;20.03;64.67;99924.03;10497261;28;20114;-70
2021/06/12 15:26:36;;;;;;;3.72;2.92;;;;;;;19.56;65.98;99918.41;10499040;28;20044;-70
2021/06/12 15:31:37;;;;;;;2.58;2.38;;;;;;;19.63;67.13;99922.41;10503941;28;20074;-70
2021/06/12 15:36:39;;;;;;;4.30;3.35;;;;;;;19.17;66.45;99959.41;10506263;28;20065;-70
2021/06/12 15:41:41;;;;;;;8.63;4.57;;;;;;;18.32;70.43;99995.19;10504262;28;20054;-69
2021/06/12 15:46:42;;;;;;;6.28;5.80;;;;;;;17.81;71.32;100005.53;10503806;28;20040;-69
2021/06/12 15:51:44;;;;;;;6.47;5.75;;;;;;;17.71;70.52;99999.03;10503672;28;20045;-70
2021/06/12 15:56:45;;;;;;;5.55;5.15;;;;;;;17.98;69.74;100001.81;10504684;28;20051;-70
2021/06/12 16:01:47;;;;;;;7.82;5.70;;;;;;;17.86;69.79;99996.31;10504213;28;20058;-70
2021/06/12 16:06:49;;;;;;;6.25;5.75;;;;;;;18.05;70.16;100003.13;10503408;28;20074;-71
2021/06/12 16:11:51;;;;;;;6.43;5.25;;;;;;;18.06;69.72;100003.06;10501787;28;20448;-71
2021/06/12 16:16:52;;;;;;;7.65;6.82;;;;;;;18.09;70.84;100008.16;10502548;28;20051;-71
2021/06/12 16:21:54;;;;;;;8.00;7.43;;;;;;;18.26;71.34;100006.25;10502473;28;20044;-71
2021/06/12 16:26:56;;;;;;;7.82;7.28;;;;;;;18.29;70.85;100001.56;10502075;28;20482;-71
2021/06/12 16:31:57;;;;;;;7.88;7.28;;;;;;;18.35;70.91;100005.66;10502880;28;20486;-72
2021/06/12 16:36:59;;;;;;;7.68;6.88;;;;;;;18.68;68.63;99989.25;10501013;28;20037;-72
2021/06/12 16:42:01;;;;;;;7.35;6.85;;;;;;;18.79;69.07;99985.94;10499654;28;20052;-72
2021/06/12 16:47:04;;;;;;;9.65;8.88;;;;;;;18.80;69.78;99982.31;10501554;28;20090;-72
2021/06/12 16:52:06;;;;;;;9.45;8.60;;;;;;;18.88;69.23;99982.66;10499477;28;20040;-72
2021/06/12 16:57:12;;;;;;;8.80;7.78;;;;;;;19.04;68.66;99974.50;10500752;28;20044;-72
2021/06/12 17:02:14;;;;;;;7.75;7.15;;;;;;;19.45;67.44;99977.00;10500784;28;20119;-72
2021/06/12 17:07:16;;;;;;;7.07;6.53;;;;;;;19.44;66.22;99972.63;10499072;28;20048;-72
2021/06/12 17:12:18;;;;;;;8.57;7.88;;;;;;;19.28;67.22;99979.97;10500566;28;20410;-73
2021/06/12 17:17:19;;;;;;;7.53;7.03;;;;;;;19.31;66.01;99983.28;10501193;28;20037;-72
2021/06/12 17:22:21;;;;;;;7.22;6.72;;;;;;;19.49;64.35;99974.97;10500756;28;20040;-73
2021/06/12 17:27:25;;;;;;;6.85;6.35;;;;;;;19.35;64.92;99986.59;10500255;28;20394;-71
2021/06/12 17:32:27;;;;;;;5.45;5.05;;;;;;;19.62;62.52;99992.69;10499297;28;20056;-71
2021/06/12 17:37:29;;;;;;;6.80;6.20;;;;;;;19.44;64.54;99993.94;10500058;28;20113;-74
2021/06/12 17:42:34;;;;;;;5.90;5.32;;;;;;;19.40;64.74;100003.13;10499681;28;20063;-74
2021/06/12 17:47:36;;;;;;;6.20;5.70;;;;;;;19.33;64.08;100012.47;10500375;28;20044;-74
2021/06/12 17:52:39;;;;;;;6.47;4.53;;;;;;;19.48;62.93;100015.88;10499412;28;20048;-73
2021/06/12 17:57:40;;;;;;;4.53;3.58;;;;;;;19.26;63.44;100027.19;10498446;28;20136;-74
2021/06/12 18:02:43;;;;;;;7.75;3.40;;;;;;;19.15;62.30;100042.06;10500094;28;20045;-74
2021/06/12 18:07:45;;;;;;;4.80;2.78;;;;;;;19.11;61.00;100045.06;10499098;28;20040;-73
2021/06/12 18:12:46;;;;;;;3.22;2.35;;;;;;;19.00;60.59;100058.25;10499915;28;20048;-74
2021/06/12 18:17:49;;;;;;;3.47;2.15;;;;;;;18.93;60.69;100065.78;10500069;28;20459;-74
2021/06/12 18:22:53;;;;;;;2.88;2.20;;;;;;;18.74;60.72;100078.59;10499908;28;20512;-73
2021/06/12 18:27:56;;;;;;;4.30;2.55;;;;;;;18.79;60.00;100074.69;10499798;28;20040;-74
2021/06/12 18:33:00;;;;;;;8.82;2.28;;;;;;;19.09;58.85;100078.94;10502779;28;20386;-74
2021/06/12 18:38:04;;;;;;;3.92;2.08;;;;;;;18.87;58.96;100090.16;10500927;28;20402;-74
2021/06/12 18:43:07;;;;;;;3.85;1.90;;;;;;;18.68;58.32;100093.09;10499097;28;20044;-75
2021/06/12 18:48:09;;;;;;;3.95;1.85;;;;;;;18.46;57.81;100095.44;10499765;28;20044;-75
2021/06/12 18:53:11;;;;;;;4.47;1.90;;;;;;;18.50;57.26;100103.13;10500357;28;20036;-75
2021/06/12 18:58:12;;;;;;;3.42;2.17;;;;;;;18.23;57.12;100112.84;10498938;28;20055;-75
2021/06/12 19:03:14;;;;;;;5.80;2.78;;;;;;;18.13;58.50;100124.06;10500239;28;20043;-74
2021/06/12 19:08:16;;;;;;;8.05;2.10;;;;;;;18.12;58.24;100130.34;10508090;28;20405;-74
2021/06/12 19:13:17;;;;;;;5.15;2.10;;;;;;;17.84;57.72;100147.13;10507210;28;20494;-74
2021/06/12 19:18:20;;;;;;;2.78;1.65;;;;;;;17.77;57.25;100166.19;10504941;28;20037;-73
2021/06/12 19:23:22;;;;;;;2.20;1.73;;;;;;;17.81;55.44;100157.94;10506634;28;20041;-73
2021/06/12 19:28:24;;;;;;;3.10;1.55;;;;;;;17.81;54.41;100176.56;10506802;28;20115;-73
2021/06/12 19:33:25;;;;;;;6.50;1.27;;;;;;;17.62;54.10;100189.19;10506266;28;20044;-73
2021/06/12 19:43:49;;;;;;;5.55;1.20;;;;;;;17.47;53.09;100206.88;10506085;28;20051;-74
2021/06/12 19:48:51;;;;;;;3.78;1.40;;;;;;;17.51;53.20;100216.38;10505274;28;20405;-74
2021/06/12 19:53:53;;;;;;;3.53;1.92;;;;;;;17.32;53.39;100223.69;10505315;28;20044;-73
2021/06/12 19:58:55;;;;;;;3.03;2.17;;;;;;;17.12;54.13;100227.47;10505647;28;20056;-73
2021/06/12 20:03:57;;;;;;;5.55;1.15;;;;;;;17.19;53.50;100235.97;10504030;28;20101;-73
2021/06/12 20:08:59;;;;;;;4.70;1.38;;;;;;;17.10;54.26;100242.63;10503350;28;20131;-73
2021/06/12 20:14:01;;;;;;;3.95;1.50;;;;;;;17.08;54.74;100252.47;10504907;28;20040;-74
2021/06/12 20:19:03;;;;;;;5.47;1.58;;;;;;;17.19;53.54;100254.56;10503800;28;20102;-74
2021/06/12 20:24:05;;;;;;;2.63;1.52;;;;;;;17.10;54.08;100259.44;10502986;28;20048;-73
2021/06/12 20:29:06;;;;;;;3.13;1.40;;;;;;;16.79;55.44;100265.56;10503678;28;20080;-73
2021/06/12 20:34:08;;;;;;;2.85;1.40;;;;;;;16.82;55.41;100283.09;10503821;28;20063;-74
2021/06/12 20:39:10;;;;;;;3.63;1.30;;;;;;;16.73;54.78;100286.25;10504536;28;20466;-73
2021/06/12 20:44:11;;;;;;;3.20;1.20;;;;;;;16.50;55.94;100290.09;10504797;28;20047;-73
2021/06/12 20:49:13;;;;;;;2.90;1.20;;;;;;;16.53;54.71;100292.59;10503407;28;20044;-73
2021/06/12 20:54:15;;;;;;;3.65;0.98;;;;;;;16.26;55.82;100309.00;10501884;28;20135;-72
2021/06/12 20:59:17;;;;;;;2.42;1.10;;;;;;;16.29;55.90;100310.59;10519191;22;20040;-75
2021/06/12 21:04:19;;;;;;;5.72;1.23;;;;;;;16.33;54.99;100315.69;10506712;28;20494;-75
2021/06/12 21:09:20;;;;;;;3.15;1.15;;;;;;;16.22;55.69;100319.84;10506696;28;20039;-73
2021/06/12 21:14:22;;;;;;;2.25;1.20;;;;;;;16.22;56.07;100322.50;10506753;28;20044;-74
2021/06/12 21:19:24;;;;;;;8.38;1.70;;;;;;;15.89;57.50;100333.81;10504785;28;20043;-74
2021/06/12 21:24:25;;;;;;;4.88;1.20;;;;;;;15.90;56.96;100343.50;10507051;28;20062;-74
2021/06/12 21:29:27;;;;;;;3.80;1.40;;;;;;;16.01;56.17;100337.66;10505779;28;20390;-75
2021/06/12 21:34:30;;;;;;;3.00;1.17;;;;;;;16.20;56.04;100351.72;10505642;28;20048;-74
2021/06/12 21:39:33;;;;;;;2.92;1.30;;;;;;;16.30;56.38;100352.13;10503764;28;20032;-73
2021/06/12 21:44:35;;;;;;;2.75;1.27;;;;;;;16.00;57.18;100360.66;10505100;28;20478;-73
2021/06/12 21:49:37;;;;;;;5.93;1.17;;;;;;;16.09;56.52;100370.81;10504114;28;20044;-74
2021/06/12 21:54:39;;;;;;;5.40;1.25;;;;;;;15.78;57.67;100363.50;10503720;28;20041;-74
2021/06/12 21:59:40;;;;;;;3.42;1.10;;;;;;;15.75;57.91;100381.34;10504401;28;20037;-74
2021/06/12 22:04:42;;;;;;;3.10;1.10;;;;;;;15.78;57.23;100383.84;10504307;28;20102;-74
2021/06/12 22:09:44;;;;;;;2.92;1.10;;;;;;;15.83;56.88;100387.13;10503371;28;20119;-73
2021/06/12 22:14:46;;;;;;;2.15;0.90;;;;;;;15.72;56.60;100400.91;10504397;28;20045;-74
2021/06/12 22:19:50;;;;;;;6.32;1.52;;;;;;;15.96;55.50;100400.66;10501215;28;20044;-72
2021/06/12 22:24:51;;;;;;;7.18;1.35;;;;;;;15.91;55.68;100408.84;10501491;28;20048;-73
2021/06/12 22:29:53;;;;;;;3.63;1.27;;;;;;;15.68;56.23;100414.38;10499876;28;20055;-73
2021/06/12 22:34:57;;;;;;;5.78;1.73;;;;;;;15.59;56.18;100424.44;10502017;28;20045;-72
2021/06/12 22:39:58;;;;;;;3.83;1.80;;;;;;;15.70;56.07;100429.25;10500329;28;20470;-72
2021/06/12 22:45:00;;;;;;;4.68;1.15;;;;;;;15.61;55.59;100440.25;10502409;28;20044;-73
2021/06/12 22:50:03;;;;;;;3.75;3.28;;;;;;;15.28;56.52;100451.47;10499906;28;20036;-72
2021/06/12 22:55:06;;;;;;;4.55;1.50;;;;;;;15.28;55.51;100461.19;10499670;28;20044;-72
2021/06/12 23:00:15;;;;;;;3.92;1.25;;;;;;;15.31;54.98;100469.00;10498551;28;20040;-74
2021/06/12 23:05:17;;;;;;;2.10;1.20;;;;;;;15.20;55.49;100473.91;10501002;28;20049;-73
2021/06/12 23:10:19;;;;;;;4.78;1.30;;;;;;;14.88;56.20;100471.72;10499065;28;20489;-72
2021/06/12 23:15:21;;;;;;;3.55;1.00;;;;;;;14.91;56.45;100485.75;10500069;28;20391;-72
2021/06/12 23:20:22;;;;;;;2.72;1.05;;;;;;;14.94;56.42;100489.13;10498873;28;20036;-73
2021/06/12 23:25:24;;;;;;;8.02;1.00;;;;;;;14.82;56.92;100498.44;10499433;28;20048;-73